Главная страница
METAR-TAF:

METAR-TAF

Аэропорты :

Нгаундере, Камерун

широта: 07-21N, долгота: 013-34E, высота над уровнем моря: 1114 м

Текущие метеонаблюдения

Эта сводка был подготовлена 15 часа и 54 минут назад, в 10:00 UTC
Ветер 5 Узел от южный-юго-западный
Температура 28°C
Влажность 70%
Давление 1019 hPa
Видимость 10 км и более
Отдельные облака на высоте 1300 фута

METAR: FKKN 191000Z 20005KT 9999 SCT013 28/22 Q1019

Время: 02:54 (01:54 UTC)


TAF: отсутствует

Метеонаблюдения и прогнозы для более 4000 аэропортов (сводки METAR и TAF).

Имеющиеся станции представлены на карте желтыми и красными точками.

Чтобы увидеть название станции, наведите на нее мышь.

Затем щелкните, чтобы увидеть метеонаблюдения и метеопрогнозы.

Управление картой: чтобы увеличить масштаб, щелкните зеленые кнопки с черным крестиком; чтобы уменьшить масштаб, щелкните зеленую кнопку с тире; для просмотра соседних карт щелкайте зеленые стрелки.


METAR-TAF: